Trans Sea — 9HA2564 — position and weather

sailwx.info

Track history (hours):
 
Tides and Currents Weather Stations Pressure Air Temp Water Temp Dewpoint Dewpoint Depression Visibility Wind Speed Wind Dir Waves Ship Positions

Trans Sea

Last reported at 2015-May-24 10:33 UTC. Time now 2015-May-24 11:22 UTC.
Position N 43°48' E 009°15'.

Length 107 m; draft 6 m.

Type: Ship (hazmat cat B). MMSI: 248887000.

Date/timePositionNaut miles runAvg speedWind from/ knotsBaromVisibWave heightAir tempDewpointWater temp
2015-May-24 10:33N 43°48' E 009°15'1413.6
2015-May-24 09:33N 43°35' E 009°21'1413.5
2015-May-24 08:33N 43°23' E 009°27'37013.1
2015-May-23 04:13N 38°49' E 014°58'913.0
2015-May-23 03:31N 38°43' E 015°07'1312.9
2015-May-23 02:33N 38°34' E 015°19'1313.0
2015-May-23 01:33N 38°25' E 015°31'1212.3
2015-May-23 00:33N 38°17' E 015°42'1110.9
2015-May-22 23:33N 38°07' E 015°36'1212.1
2015-May-22 22:33N 37°55' E 015°39'1612.5
2015-May-22 21:14N 37°47' E 015°57'36312.7
2015-May-21 16:31N 36°45' E 023°27'1413.2
2015-May-21 15:27N 36°58' E 023°34'3113.3
2015-May-21 13:08N 37°28' E 023°40'712.6
2015-May-21 12:33N 37°35' E 023°42'1312.8
2015-May-21 11:33N 37°48' E 023°38'4 4.1
2015-May-21 10:34N 37°52' E 023°39'1212.0
2015-May-21 09:33N 37°41' E 023°46'1513.5
2015-May-21 08:25N 37°37' E 024°05'  
2015-May-16 06:33N 37°39' E 023°44'1212.4
2015-May-16 05:33N 37°50' E 023°36'8 7.7
2015-May-16 04:33N 37°57' E 023°35'0 0.0
2015-May-16 03:33N 37°57' E 023°35'0 0.0
2015-May-16 02:28N 37°57' E 023°35'0 0.0
2015-May-16 01:31N 37°57' E 023°35'0 0.0
2015-May-16 00:25N 37°57' E 023°35'0 0.0
2015-May-15 23:31N 37°57' E 023°35'0 0.0
2015-May-15 22:31N 37°57' E 023°35'0 0.0
2015-May-15 21:31N 37°57' E 023°35'0 0.0
2015-May-15 20:31N 37°57' E 023°35'0 0.0
2015-May-15 19:31N 37°57' E 023°35'0 0.0
2015-May-15 18:28N 37°57' E 023°35'0 0.0
2015-May-15 17:31N 37°57' E 023°35'0 0.0
2015-May-15 16:31N 37°57' E 023°35'0 0.0
2015-May-15 15:31N 37°57' E 023°35'0 0.0
2015-May-15 14:25N 37°57' E 023°35'0 0.0
2015-May-15 13:31N 37°57' E 023°35'0 0.0
2015-May-15 12:22N 37°57' E 023°35'0 0.0
2015-May-15 11:31N 37°57' E 023°35'0 0.0
2015-May-15 10:31N 37°57' E 023°35'0 0.0
2015-May-15 09:31N 37°57' E 023°35'3 3.2
2015-May-15 08:33N 37°55' E 023°37'1312.7
2015-May-15 07:34N 37°43' E 023°43'1212.3
2015-May-15 06:33N 37°31' E 023°44'  
Track history (hours):
 
Tides and Currents Weather Stations Pressure Air Temp Water Temp Dewpoint Dewpoint Depression Visibility Wind Speed Wind Dir Waves Ship Positions

Trans Sea

Last reported at 2015-May-24 10:33 UTC. Time now 2015-May-24 11:22 UTC.
Position N 43°48' E 009°15'.

Length 107 m; draft 6 m.

Type: Ship (hazmat cat B). MMSI: 248887000.

Date/timePositionNaut miles runAvg speedWind from/ knotsBaromVisibWave heightAir tempDewpointWater temp
2015-May-24 10:33N 43°48' E 009°15'1413.6
2015-May-24 09:33N 43°35' E 009°21'1413.5
2015-May-24 08:33N 43°23' E 009°27'37013.1
2015-May-23 04:13N 38°49' E 014°58'913.0
2015-May-23 03:31N 38°43' E 015°07'1312.9
2015-May-23 02:33N 38°34' E 015°19'1313.0
2015-May-23 01:33N 38°25' E 015°31'1212.3
2015-May-23 00:33N 38°17' E 015°42'1110.9
2015-May-22 23:33N 38°07' E 015°36'1212.1
2015-May-22 22:33N 37°55' E 015°39'1612.5
2015-May-22 21:14N 37°47' E 015°57'36312.7
2015-May-21 16:31N 36°45' E 023°27'1413.2
2015-May-21 15:27N 36°58' E 023°34'3113.3
2015-May-21 13:08N 37°28' E 023°40'712.6
2015-May-21 12:33N 37°35' E 023°42'1312.8
2015-May-21 11:33N 37°48' E 023°38'4 4.1
2015-May-21 10:34N 37°52' E 023°39'1212.0
2015-May-21 09:33N 37°41' E 023°46'1513.5
2015-May-21 08:25N 37°37' E 024°05'  
2015-May-16 06:33N 37°39' E 023°44'1212.4
2015-May-16 05:33N 37°50' E 023°36'8 7.7
2015-May-16 04:33N 37°57' E 023°35'0 0.0
2015-May-16 03:33N 37°57' E 023°35'0 0.0
2015-May-16 02:28N 37°57' E 023°35'0 0.0
2015-May-16 01:31N 37°57' E 023°35'0 0.0
2015-May-16 00:25N 37°57' E 023°35'0 0.0
2015-May-15 23:31N 37°57' E 023°35'0 0.0
2015-May-15 22:31N 37°57' E 023°35'0 0.0
2015-May-15 21:31N 37°57' E 023°35'0 0.0
2015-May-15 20:31N 37°57' E 023°35'0 0.0
2015-May-15 19:31N 37°57' E 023°35'0 0.0
2015-May-15 18:28N 37°57' E 023°35'0 0.0
2015-May-15 17:31N 37°57' E 023°35'0 0.0
2015-May-15 16:31N 37°57' E 023°35'0 0.0
2015-May-15 15:31N 37°57' E 023°35'0 0.0
2015-May-15 14:25N 37°57' E 023°35'0 0.0
2015-May-15 13:31N 37°57' E 023°35'0 0.0
2015-May-15 12:22N 37°57' E 023°35'0 0.0
2015-May-15 11:31N 37°57' E 023°35'0 0.0
2015-May-15 10:31N 37°57' E 023°35'0 0.0
2015-May-15 09:31N 37°57' E 023°35'3 3.2
2015-May-15 08:33N 37°55' E 023°37'1312.7
2015-May-15 07:34N 37°43' E 023°43'1212.3
2015-May-15 06:33N 37°31' E 023°44'  

Dump ship's entire track history